首页
METAR-TAF:

METAR-TAF

机场 :

富吉拉, 阿拉伯联合酋长国

纬度: 25-06N, 经度: 056-20E, 海拔: 28米

当前天气观测

该预报发布于1小时和0分钟前的06:00 UTC
风速6节,风向东转东南,在东南之间变化
温度 27°C
湿度 70%
气压 1014 hPa
能見度: 8000

METAR: OMFJ 030600Z 12006KT 080V140 8000 NSC 27/21 Q1014 A2994

时间: 11:00 (07:00 UTC)

预报

该预报发布于2小时和0分钟前的05:00 UTC
预报有效从03日的 06点(UTC)到 04日的 12点(UTC)
风速8节,风向
能見度: 8000
成为
从 03日的 14点(UTC)到 03日的 16点(UTC)
风速3节,风向多变
成为
从 04日的 00点(UTC)到 04日的 02点(UTC)
风速5节,风向西转西北
成为
从 04日的 06点(UTC)到 04日的 08点(UTC)
风速10节,风向

TAF: OMFJ 030500Z 0306/0412 10008KT 8000 NSC BECMG 0314/0316 VRB03KT BECMG 0400/0402 29005KT BECMG 0406/0408 09010KT

超过4000个机场的气象观测和天气预报(METAR&TAF报告)。

可查询的气象台以黄色和红色小点在地图上表示。

将鼠标移到小点上方,可查看气象台名称。

然后点击查看天气观测和预报。

如需切换地图:点击带黑十字的绿色按钮放大地图;点击带横线的绿色按钮缩小地图;或者点击绿色箭头查看邻近地区的地图。


METAR-TAF: